Time;durP1;ratioP1;P1;durP2;ratioP2;P2;SDS_P1;SDS_P2;PMS_P1;PMS_P2;Temp;Humidity;BMP_temperature;BMP_pressure;BME280_temperature;BME280_humidity;BME280_pressure;Samples;Min_cycle;Max_cycle;Signal;HPM_P1;HPM_P2
2021/03/09 00:00:59;;;;;;;;;;;;;;;-2.45;75.05;99423.23;1685185;83;20195;-69
2021/03/09 00:03:27;;;;;;;;;;;;;;;-2.43;75.27;99425.21;1716141;84;20486;-73
2021/03/09 00:05:56;;;;;;;;;;;;;;;-2.46;75.37;99425.08;1716372;84;20184;-71
2021/03/09 00:08:23;;;;;;;;;;;;;;;-2.48;75.62;99428.95;1739411;80;20236;-73
2021/03/09 00:10:50;;;;;;;;;;;;;;;-2.51;76.22;99420.78;1739956;81;20185;-69
2021/03/09 00:13:18;;;;;;;;;;;;;;;-2.54;77.15;99423.83;1722897;82;20212;-71
2021/03/09 00:15:45;;;;;;;;;;;;;;;-2.55;77.49;99423.48;1716384;84;20721;-70
2021/03/09 00:18:14;;;;;;;;;;;;;;;-2.51;77.92;99419.94;1716235;83;20482;-74
2021/03/09 00:20:43;;;;;;;;;;;;;;;-2.53;78.54;99417.96;1754718;82;20633;-70
2021/03/09 00:23:10;;;;;;;;;;;;;;;-2.52;78.68;99418.27;1727671;81;20252;-70
2021/03/09 00:25:38;;;;;;;;;;;;;;;-2.48;79.13;99415.06;1734877;82;20181;-73
2021/03/09 00:28:06;;;;;;;;;;;;;;;-2.47;79.50;99414.02;1723263;82;20200;-74
2021/03/09 00:30:33;;;;;;;;;;;;;;;-2.56;79.48;99415.15;1702335;82;20212;-69
2021/03/09 00:33:02;;;;;;;;;;;;;;;-2.59;80.13;99415.02;1718809;82;20488;-70
2021/03/09 00:35:30;;;;;;;;;;;;;;;-2.58;80.18;99410.48;1721357;83;20298;-70
2021/03/09 00:37:57;;;;;;;;;;;;;;;-2.62;80.39;99404.66;1721216;83;20567;-71
2021/03/09 00:40:25;;;;;;;;;;;;;;;-2.66;80.48;99406.56;1721142;83;20244;-73
2021/03/09 00:42:52;;;;;;;;;;;;;;;-2.67;80.52;99411.08;1716658;83;20243;-70
2021/03/09 00:45:21;;;;;;;;;;;;;;;-2.66;80.63;99411.38;1716691;83;20550;-70
2021/03/09 00:47:50;;;;;;;;;;;;;;;-2.65;80.62;99405.52;1714636;83;20200;-70
2021/03/09 00:50:18;;;;;;;;;;;;;;;-2.64;80.71;99408.54;1716485;83;20478;-71
2021/03/09 00:52:46;;;;;;;;;;;;;;;-2.64;80.66;99415.23;1732592;81;20188;-70
2021/03/09 00:55:13;;;;;;;;;;;;;;;-2.61;80.68;99416.21;1716614;84;20231;-74
2021/03/09 00:57:41;;;;;;;;;;;;;;;-2.59;80.70;99414.17;1715936;83;20525;-69
2021/03/09 01:00:10;;;;;;;;;;;;;;;-2.52;80.55;99414.25;1689735;84;20565;-73
2021/03/09 01:02:37;;;;;;;;;;;;;;;-2.49;80.07;99416.06;1716071;83;20290;-72
2021/03/09 01:05:06;;;;;;;;;;;;;;;-2.46;79.57;99422.90;1715718;83;20183;-72
2021/03/09 01:07:34;;;;;;;;;;;;;;;-2.46;79.27;99413.02;1716006;83;20184;-73
2021/03/09 01:10:02;;;;;;;;;;;;;;;-2.52;79.04;99420.95;1716188;84;20204;-74
2021/03/09 01:12:29;;;;;;;;;;;;;;;-2.60;78.82;99421.87;1714856;82;20201;-74
2021/03/09 01:14:57;;;;;;;;;;;;;;;-2.61;79.10;99425.59;1716455;84;20191;-72
2021/03/09 01:17:24;;;;;;;;;;;;;;;-2.63;79.30;99430.27;1714139;82;20541;-73
2021/03/09 01:19:52;;;;;;;;;;;;;;;-2.66;79.47;99433.34;1720438;83;20589;-73
2021/03/09 01:22:20;;;;;;;;;;;;;;;-2.67;79.81;99431.67;1678409;85;20266;-71
2021/03/09 01:24:47;;;;;;;;;;;;;;;-2.71;79.93;99431.19;1687537;85;20194;-75
2021/03/09 01:27:15;;;;;;;;;;;;;;;-2.74;80.16;99436.94;1676451;83;20465;-72
2021/03/09 01:29:43;;;;;;;;;;;;;;;-2.78;80.40;99442.82;1712786;82;20478;-72
2021/03/09 01:32:11;;;;;;;;;;;;;;;-2.79;80.47;99443.85;1724906;83;20239;-73
2021/03/09 01:34:39;;;;;;;;;;;;;;;-2.86;81.90;99448.28;1724460;83;20204;-74
2021/03/09 01:37:06;;;;;;;;;;;;;;;-2.93;82.41;99454.02;1724452;83;20262;-74
2021/03/09 01:39:34;;;;;;;;;;;;;;;-2.97;82.76;99456.75;1724727;83;20244;-71
2021/03/09 01:42:02;;;;;;;;;;;;;;;-3.00;82.96;99453.09;1724182;83;20223;-74
2021/03/09 01:44:30;;;;;;;;;;;;;;;-3.13;83.59;99452.87;1754592;82;20189;-73
2021/03/09 01:47:00;;;;;;;;;;;;;;;-3.16;83.88;99453.25;1754539;82;20181;-71
2021/03/09 01:49:33;;;;;;;;;;;;;;;-3.17;83.23;99454.25;1754800;82;20185;-74
2021/03/09 01:52:05;;;;;;;;;;;;;;;-3.21;83.03;99450.59;1735034;82;20523;-73
2021/03/09 01:54:33;;;;;;;;;;;;;;;-3.21;82.98;99456.45;1726616;83;20553;-73
2021/03/09 01:57:01;;;;;;;;;;;;;;;-3.19;83.17;99461.14;1725983;83;20197;-74
2021/03/09 01:59:28;;;;;;;;;;;;;;;-3.15;83.06;99465.61;1726792;83;20186;-71
2021/03/09 02:01:57;;;;;;;;;;;;;;;-3.16;82.99;99468.78;1726359;83;20217;-75
2021/03/09 02:04:25;;;;;;;;;;;;;;;-3.22;83.20;99472.20;1740105;80;20501;-77
2021/03/09 02:06:53;;;;;;;;;;;;;;;-3.25;83.32;99470.71;1729544;82;20828;-75
2021/03/09 02:09:21;;;;;;;;;;;;;;;-3.25;83.49;99470.71;1726159;82;20201;-75
2021/03/09 02:12:10;;;;;;;;;;;;;;;-3.24;83.47;99471.02;1726866;83;20524;-71
2021/03/09 02:14:50;;;;;;;;;;;;;;;-3.23;83.50;99475.37;1726404;82;20189;-70
2021/03/09 02:17:24;;;;;;;;;;;;;;;-3.22;83.62;99475.70;1726186;82;20609;-71
2021/03/09 02:20:28;;;;;;;;;;;;;;;-3.24;83.48;99475.56;1726291;83;20254;-70
2021/03/09 02:23:28;;;;;;;;;;;;;;;-3.24;83.42;99483.06;1726494;82;20278;-71
2021/03/09 02:26:05;;;;;;;;;;;;;;;-3.21;83.24;99480.03;1726531;83;20237;-70
2021/03/09 02:28:40;;;;;;;;;;;;;;;-3.16;82.75;99484.03;1755721;82;20214;-74
2021/03/09 02:31:08;;;;;;;;;;;;;;;-3.11;82.39;99491.02;1756522;81;20191;-73
2021/03/09 02:33:50;;;;;;;;;;;;;;;-3.09;82.17;99490.32;1756021;82;20496;-68
2021/03/09 02:36:20;;;;;;;;;;;;;;;-3.13;81.39;99495.69;1756377;81;20206;-69
2021/03/09 02:38:51;;;;;;;;;;;;;;;-3.15;81.49;99494.55;1727417;82;20152;-70
2021/03/09 02:41:20;;;;;;;;;;;;;;;-3.13;81.39;99495.69;1756410;81;20182;-70
2021/03/09 02:43:49;;;;;;;;;;;;;;;-3.21;80.45;99500.09;1756151;81;20516;-74
2021/03/09 02:46:16;;;;;;;;;;;;;;;-3.23;80.64;99495.94;1756184;81;20175;-74
2021/03/09 02:48:44;;;;;;;;;;;;;;;-3.24;80.49;99495.63;1727574;82;20179;-73
2021/03/09 02:51:12;;;;;;;;;;;;;;;-3.28;80.59;99504.51;1713562;83;20215;-70
2021/03/09 02:53:43;;;;;;;;;;;;;;;-3.28;80.09;99503.17;1716066;84;20200;-74
2021/03/09 02:56:11;;;;;;;;;;;;;;;-3.31;79.91;99504.86;1716431;83;20191;-72
2021/03/09 02:58:39;;;;;;;;;;;;;;;-3.34;79.64;99511.90;1716254;84;20247;-73
2021/03/09 03:01:07;;;;;;;;;;;;;;;-3.33;79.85;99511.40;1716096;84;20179;-74
2021/03/09 03:03:35;;;;;;;;;;;;;;;-3.29;79.83;99508.18;1728074;80;20254;-72
2021/03/09 03:06:05;;;;;;;;;;;;;;;-3.25;79.62;99513.52;1740451;80;20213;-73
2021/03/09 03:08:33;;;;;;;;;;;;;;;-3.24;78.60;99504.47;1733728;80;20537;-74
2021/03/09 03:11:02;;;;;;;;;;;;;;;-3.29;77.75;99508.18;1737283;80;20181;-73
2021/03/09 03:13:32;;;;;;;;;;;;;;;-3.35;77.67;99516.94;1747365;80;20199;-73
2021/03/09 03:15:59;;;;;;;;;;;;;;;-3.47;77.55;99524.22;1717666;82;20581;-68
2021/03/09 03:18:29;;;;;;;;;;;;;;;-3.61;77.28;99513.76;1720996;82;20192;-71
2021/03/09 03:20:56;;;;;;;;;;;;;;;-3.72;77.40;99517.34;1723843;82;20710;-71
2021/03/09 03:23:25;;;;;;;;;;;;;;;-3.81;77.71;99523.23;1727430;82;20186;-72
2021/03/09 03:25:53;;;;;;;;;;;;;;;-3.86;77.59;99520.24;1721147;82;20196;-71
2021/03/09 03:28:21;;;;;;;;;;;;;;;-3.89;77.63;99522.77;1717329;82;20190;-74
2021/03/09 03:30:50;;;;;;;;;;;;;;;-3.91;77.55;99523.95;1718264;82;20243;-71
2021/03/09 03:33:17;;;;;;;;;;;;;;;-3.95;77.23;99527.45;1719669;82;20188;-73
2021/03/09 03:35:46;;;;;;;;;;;;;;;-3.99;77.27;99536.84;1721501;82;20530;-74
2021/03/09 03:38:15;;;;;;;;;;;;;;;-4.02;77.21;99541.69;1718224;82;20215;-74
2021/03/09 03:40:42;;;;;;;;;;;;;;;-4.06;77.22;99532.36;1721488;82;20511;-73
2021/03/09 03:43:10;;;;;;;;;;;;;;;-4.10;77.20;99538.55;1723651;82;20510;-73
2021/03/09 03:45:37;;;;;;;;;;;;;;;-4.14;77.29;99545.75;1723548;82;20574;-69
2021/03/09 03:48:07;;;;;;;;;;;;;;;-4.28;77.62;99546.47;1725419;82;20199;-73
2021/03/09 03:50:35;;;;;;;;;;;;;;;-4.42;78.06;99547.16;1731312;82;20173;-73
2021/03/09 03:53:23;;;;;;;;;;;;;;;-4.45;78.21;99550.20;1722833;82;20265;-74
2021/03/09 03:56:12;;;;;;;;;;;;;;;-4.46;78.31;99555.19;1715925;82;20192;-71
2021/03/09 03:59:11;;;;;;;;;;;;;;;-4.53;78.55;99554.52;1723087;82;20251;-73
2021/03/09 04:01:39;;;;;;;;;;;;;;;-4.57;78.83;99557.20;1718756;82;20757;-72
2021/03/09 04:04:11;;;;;;;;;;;;;;;-4.57;79.07;99561.71;1721053;82;20180;-73
2021/03/09 04:06:48;;;;;;;;;;;;;;;-4.55;79.05;99563.20;1737407;82;20178;-73
2021/03/09 04:09:16;;;;;;;;;;;;;;;-4.48;78.90;99565.22;1716395;82;20647;-74
2021/03/09 04:11:43;;;;;;;;;;;;;;;-4.43;78.61;99564.20;1711749;84;20211;-72
2021/03/09 04:14:12;;;;;;;;;;;;;;;-4.44;78.44;99569.20;1721189;83;20200;-76
2021/03/09 04:16:44;;;;;;;;;;;;;;;-4.48;78.48;99571.39;1721171;83;20569;-71
2021/03/09 04:19:13;;;;;;;;;;;;;;;-4.47;78.43;99582.89;1721057;83;20247;-73
2021/03/09 04:21:40;;;;;;;;;;;;;;;-4.50;78.68;99582.23;1725130;82;20219;-74
2021/03/09 04:24:09;;;;;;;;;;;;;;;-4.50;78.89;99586.23;1739825;81;20185;-72
2021/03/09 04:26:37;;;;;;;;;;;;;;;-4.45;78.89;99590.25;1744268;82;20183;-69
2021/03/09 04:29:04;;;;;;;;;;;;;;;-4.40;78.80;99599.92;1717048;82;20550;-71
2021/03/09 04:31:32;;;;;;;;;;;;;;;-4.37;78.63;99599.56;1749326;81;20229;-73
2021/03/09 04:34:00;;;;;;;;;;;;;;;-4.35;78.48;99601.59;1738859;82;20204;-71
2021/03/09 04:36:29;;;;;;;;;;;;;;;-4.38;78.20;99598.75;1721032;83;20505;-71
2021/03/09 04:38:57;;;;;;;;;;;;;;;-4.40;78.13;99605.27;1721125;83;20220;-70
2021/03/09 04:41:25;;;;;;;;;;;;;;;-4.42;78.12;99613.43;1738942;81;20185;-71
2021/03/09 04:43:52;;;;;;;;;;;;;;;-4.50;78.14;99611.60;1751317;82;20261;-73
2021/03/09 04:46:23;;;;;;;;;;;;;;;-4.52;78.11;99614.95;1748331;81;20205;-73
2021/03/09 04:48:51;;;;;;;;;;;;;;;-4.51;78.20;99625.98;1708550;84;20216;-74
2021/03/09 04:51:19;;;;;;;;;;;;;;;-4.50;78.25;99631.63;1719099;82;20206;-75
2021/03/09 04:53:46;;;;;;;;;;;;;;;-4.50;77.92;99620.11;1721321;83;20204;-74
2021/03/09 04:56:14;;;;;;;;;;;;;;;-4.57;78.28;99636.47;1721394;83;20179;-74
2021/03/09 04:58:42;;;;;;;;;;;;;;;-4.63;78.47;99635.30;1721362;83;20184;-75
2021/03/09 05:01:09;;;;;;;;;;;;;;;-4.62;78.55;99646.33;1721536;83;20550;-76
2021/03/09 05:03:37;;;;;;;;;;;;;;;-4.63;78.25;99643.84;1721439;83;20224;-76
2021/03/09 05:06:06;;;;;;;;;;;;;;;-4.62;78.48;99650.83;1729228;82;20250;-72
2021/03/09 05:08:33;;;;;;;;;;;;;;;-4.60;78.57;99664.84;1731630;81;20284;-75
2021/03/09 05:11:01;;;;;;;;;;;;;;;-4.57;78.64;99654.67;1726787;82;20181;-74
2021/03/09 05:13:31;;;;;;;;;;;;;;;-4.48;78.14;99656.02;1741150;82;20414;-73
2021/03/09 05:15:59;;;;;;;;;;;;;;;-4.43;77.76;99663.86;1725140;82;20249;-73
2021/03/09 05:18:28;;;;;;;;;;;;;;;-4.41;77.55;99665.86;1732082;81;20179;-75
2021/03/09 05:20:57;;;;;;;;;;;;;;;-4.36;77.48;99673.36;1727766;82;20179;-74
2021/03/09 05:23:25;;;;;;;;;;;;;;;-4.47;77.33;99677.20;1728356;82;20176;-75
2021/03/09 05:25:54;;;;;;;;;;;;;;;-4.51;77.76;99670.53;1704114;83;20631;-75
2021/03/09 05:28:21;;;;;;;;;;;;;;;-4.44;77.58;99677.36;1734826;82;20183;-73
2021/03/09 05:30:49;;;;;;;;;;;;;;;-4.38;77.05;99684.72;1730780;82;20497;-74
2021/03/09 05:33:17;;;;;;;;;;;;;;;-4.34;76.77;99681.54;1732430;82;20195;-74
2021/03/09 05:35:45;;;;;;;;;;;;;;;-4.29;76.81;99690.38;1727786;82;20197;-75
2021/03/09 05:38:13;;;;;;;;;;;;;;;-4.24;76.13;99693.38;1729554;82;20247;-75
2021/03/09 05:40:40;;;;;;;;;;;;;;;-4.30;76.41;99696.22;1734071;82;20215;-73
2021/03/09 05:43:09;;;;;;;;;;;;;;;-4.21;76.34;99705.08;1733674;82;20183;-72
2021/03/09 05:45:37;;;;;;;;;;;;;;;-4.23;76.26;99708.42;1708727;82;20518;-73
2021/03/09 05:48:06;;;;;;;;;;;;;;;-4.27;76.19;99708.41;1730154;82;20530;-72
2021/03/09 05:50:34;;;;;;;;;;;;;;;-4.29;76.22;99707.25;1733606;82;20182;-76
2021/03/09 05:53:02;;;;;;;;;;;;;;;-4.23;76.40;99715.10;1731954;82;20215;-76
2021/03/09 05:55:29;;;;;;;;;;;;;;;-4.07;76.16;99724.42;1733610;82;20197;-72
2021/03/09 05:57:57;;;;;;;;;;;;;;;-4.00;75.95;99726.78;1730087;81;20176;-77
2021/03/09 06:00:34;;;;;;;;;;;;;;;-4.14;75.47;99730.95;1728904;82;20215;-77
2021/03/09 06:03:02;;;;;;;;;;;;;;;-4.24;75.80;99730.78;1735378;82;20236;-73
2021/03/09 06:05:31;;;;;;;;;;;;;;;-4.25;76.15;99731.81;1732840;82;20466;-72
2021/03/09 06:07:59;;;;;;;;;;;;;;;-4.19;75.81;99740.47;1735456;82;20280;-72
2021/03/09 06:10:27;;;;;;;;;;;;;;;-4.10;76.07;99740.83;1732786;81;20189;-72
2021/03/09 06:12:54;;;;;;;;;;;;;;;-4.01;75.83;99747.82;1734650;82;20236;-72
2021/03/09 06:15:22;;;;;;;;;;;;;;;-3.96;74.90;99762.85;1732201;81;20239;-76
2021/03/09 06:17:54;;;;;;;;;;;;;;;-4.01;74.65;99758.51;1724715;82;20180;-72
2021/03/09 06:20:25;;;;;;;;;;;;;;;-4.06;74.93;99761.69;1721388;83;20203;-75
2021/03/09 06:22:56;;;;;;;;;;;;;;;-4.01;75.08;99769.20;1721895;82;20636;-76
2021/03/09 06:25:39;;;;;;;;;;;;;;;-3.98;74.18;99782.23;1742307;81;20195;-72
2021/03/09 06:28:07;;;;;;;;;;;;;;;-3.97;74.45;99777.20;1739645;81;20215;-72
2021/03/09 06:30:38;;;;;;;;;;;;;;;-3.98;74.11;99780.90;1768641;81;20205;-75
2021/03/09 06:33:06;;;;;;;;;;;;;;;-4.00;74.30;99782.91;1721015;81;20187;-74
2021/03/09 06:35:39;;;;;;;;;;;;;;;-3.94;74.74;99783.56;1720277;81;20182;-70
2021/03/09 06:38:25;;;;;;;;;;;;;;;-3.89;73.92;99774.53;1737310;81;20220;-72
2021/03/09 06:41:10;;;;;;;;;;;;;;;-3.82;74.30;99782.73;1729048;81;20220;-74
2021/03/09 06:43:39;;;;;;;;;;;;;;;-3.77;73.99;99785.25;1721211;83;20243;-74
2021/03/09 06:46:18;;;;;;;;;;;;;;;-3.67;73.51;99791.75;1729099;81;20187;-74
2021/03/09 06:48:54;;;;;;;;;;;;;;;-3.64;73.84;99787.41;1729213;81;20187;-74
2021/03/09 06:51:35;;;;;;;;;;;;;;;-3.56;73.51;99793.55;1728467;82;20193;-73
2021/03/09 06:54:07;;;;;;;;;;;;;;;-3.46;72.81;99795.55;1716644;82;20205;-75
2021/03/09 06:56:37;;;;;;;;;;;;;;;-3.49;72.12;99793.20;1742654;80;20177;-73
2021/03/09 06:59:26;;;;;;;;;;;;;;;-3.48;72.36;99802.91;1719589;82;20201;-75
2021/03/09 07:02:08;;;;;;;;;;;;;;;-3.43;72.33;99796.55;1733738;82;20661;-75
2021/03/09 07:04:40;;;;;;;;;;;;;;;-3.34;71.97;99806.73;1721317;81;20363;-73
2021/03/09 07:07:10;;;;;;;;;;;;;;;-3.35;71.07;99804.56;1723253;83;20199;-74
2021/03/09 07:09:55;;;;;;;;;;;;;;;-3.29;70.28;99810.55;1731153;83;20183;-73
2021/03/09 07:12:22;;;;;;;;;;;;;;;-3.24;70.66;99805.52;1731384;83;20282;-73
2021/03/09 07:14:50;;;;;;;;;;;;;;;-3.21;71.04;99804.34;1729724;82;20171;-74
2021/03/09 07:17:23;;;;;;;;;;;;;;;-3.12;69.38;99810.52;1733102;82;20702;-74
2021/03/09 07:19:52;;;;;;;;;;;;;;;-3.15;69.38;99806.34;1733662;82;20173;-75
2021/03/09 07:22:20;;;;;;;;;;;;;;;-3.14;69.98;99807.19;1718628;82;20687;-73
2021/03/09 07:24:58;;;;;;;;;;;;;;;-3.21;69.95;99813.70;1724066;82;20213;-77
2021/03/09 07:27:39;;;;;;;;;;;;;;;-3.35;69.89;99823.29;1715247;81;20246;-75
2021/03/09 07:30:10;;;;;;;;;;;;;;;-3.29;69.02;99825.27;1726098;82;20938;-76
2021/03/09 07:32:42;;;;;;;;;;;;;;;-3.15;68.45;99824.23;1730745;81;20718;-76
2021/03/09 07:35:11;;;;;;;;;;;;;;;-3.08;68.67;99823.88;1747437;81;20216;-76
2021/03/09 07:37:40;;;;;;;;;;;;;;;-2.99;69.08;99827.72;1764444;81;20184;-75
2021/03/09 07:40:12;;;;;;;;;;;;;;;-2.90;68.42;99828.50;1735039;83;20181;-76
2021/03/09 07:42:40;;;;;;;;;;;;;;;-2.92;68.39;99824.67;1721068;82;20208;-77
2021/03/09 07:45:14;;;;;;;;;;;;;;;-2.88;68.04;99831.34;1736757;82;20484;-74
2021/03/09 07:48:05;;;;;;;;;;;;;;;-2.79;67.67;99834.83;1737493;82;20176;-75
2021/03/09 07:50:36;;;;;;;;;;;;;;;-2.73;66.45;99838.14;1728197;82;20185;-75
2021/03/09 07:53:05;;;;;;;;;;;;;;;-2.91;67.03;99830.34;1742109;81;20293;-75
2021/03/09 07:55:33;;;;;;;;;;;;;;;-3.04;67.85;99834.59;1733934;81;20330;-73
2021/03/09 07:58:16;;;;;;;;;;;;;;;-3.26;68.91;99855.70;1745377;81;20180;-75
2021/03/09 08:00:58;;;;;;;;;;;;;;;-3.24;70.30;99846.19;1731071;82;20247;-75
2021/03/09 08:03:35;;;;;;;;;;;;;;;-3.36;71.69;99851.04;1736466;82;20186;-73
2021/03/09 08:06:08;;;;;;;;;;;;;;;-3.47;73.10;99862.60;1736534;81;20188;-75
2021/03/09 08:08:42;;;;;;;;;;;;;;;-3.49;75.02;99872.11;1711128;82;20193;-75
2021/03/09 08:11:25;;;;;;;;;;;;;;;-3.51;75.47;99867.44;1725999;81;20496;-74
2021/03/09 08:14:08;;;;;;;;;;;;;;;-3.77;80.16;99872.64;1729981;82;20180;-76
2021/03/09 08:16:43;;;;;;;;;;;;;;;-3.89;78.99;99872.95;1715886;84;20207;-75
2021/03/09 08:19:17;;;;;;;;;;;;;;;-3.89;78.17;99890.82;1716722;82;20200;-75
2021/03/09 08:21:51;;;;;;;;;;;;;;;-3.77;76.17;99892.20;1688611;84;20208;-74
2021/03/09 08:24:21;;;;;;;;;;;;;;;-3.68;74.69;99890.34;1723448;82;20217;-75
2021/03/09 08:26:50;;;;;;;;;;;;;;;-3.69;73.17;99888.16;1703329;83;20192;-73
2021/03/09 08:29:32;;;;;;;;;;;;;;;-3.64;73.38;99901.06;1719265;82;20188;-75
2021/03/09 08:32:24;;;;;;;;;;;;;;;-3.65;72.71;99896.70;1731027;82;20193;-74
2021/03/09 08:35:15;;;;;;;;;;;;;;;-3.66;73.45;99907.89;1697620;82;20201;-75
2021/03/09 08:37:45;;;;;;;;;;;;;;;-3.72;71.84;99911.25;1717380;83;20177;-73
2021/03/09 08:40:20;;;;;;;;;;;;;;;-3.71;71.91;99920.93;1731045;82;20566;-73
2021/03/09 08:43:04;;;;;;;;;;;;;;;-3.79;71.35;99915.56;1734426;82;20193;-75
2021/03/09 08:45:42;;;;;;;;;;;;;;;-3.83;71.56;99918.24;1724036;82;20186;-75
2021/03/09 08:48:10;;;;;;;;;;;;;;;-3.81;72.02;99922.08;1724252;82;20190;-76
2021/03/09 08:50:43;;;;;;;;;;;;;;;-3.67;72.49;99926.30;1698056;82;20191;-74
2021/03/09 08:53:28;;;;;;;;;;;;;;;-3.48;73.20;99925.12;1734585;82;20232;-75
2021/03/09 08:56:04;;;;;;;;;;;;;;;-3.31;73.37;99932.98;1716069;84;20187;-75
2021/03/09 08:58:32;;;;;;;;;;;;;;;-3.24;73.08;99939.84;1732428;81;20240;-75
2021/03/09 09:01:01;;;;;;;;;;;;;;;-3.16;72.60;99931.79;1719926;81;20250;-74
2021/03/09 09:03:33;;;;;;;;;;;;;;;-3.08;71.79;99929.61;1729737;81;20318;-75
2021/03/09 09:06:01;;;;;;;;;;;;;;;-3.01;71.05;99930.63;1731873;81;20232;-76
2021/03/09 09:08:29;;;;;;;;;;;;;;;-2.88;70.14;99933.09;1733943;81;20188;-74
2021/03/09 09:10:58;;;;;;;;;;;;;;;-2.76;70.08;99929.56;1734738;82;20248;-75
2021/03/09 09:13:34;;;;;;;;;;;;;;;-2.67;68.58;99945.44;1732694;82;20200;-74
2021/03/09 09:16:04;;;;;;;;;;;;;;;-2.67;65.67;99936.06;1725193;82;20252;-73
2021/03/09 09:18:32;;;;;;;;;;;;;;;-2.64;65.56;99936.22;1715401;82;20191;-74
2021/03/09 09:21:00;;;;;;;;;;;;;;;-2.58;65.52;99946.27;1717573;83;20175;-73
2021/03/09 09:23:31;;;;;;;;;;;;;;;-2.52;65.15;99941.54;1719222;83;20176;-72
2021/03/09 09:26:01;;;;;;;;;;;;;;;-2.48;62.91;99951.42;1709680;81;20545;-75
2021/03/09 09:28:30;;;;;;;;;;;;;;;-2.54;61.50;99956.95;1718480;81;20255;-72
2021/03/09 09:31:12;;;;;;;;;;;;;;;-2.55;60.50;99955.27;1732358;83;20327;-77
2021/03/09 09:33:53;;;;;;;;;;;;;;;-2.52;60.25;99966.98;1736102;82;20257;-75
2021/03/09 09:36:22;;;;;;;;;;;;;;;-2.62;59.95;99960.98;1726331;81;20227;-77
2021/03/09 09:38:54;;;;;;;;;;;;;;;-2.64;60.93;99981.27;1698619;83;20221;-74
2021/03/09 09:41:22;;;;;;;;;;;;;;;-2.74;60.70;99977.09;1716192;83;20188;-76
2021/03/09 09:43:50;;;;;;;;;;;;;;;-2.78;59.98;99973.06;1716075;83;20685;-78
2021/03/09 09:46:23;;;;;;;;;;;;;;;-2.74;60.52;99977.09;1723717;81;20263;-75
2021/03/09 09:48:52;;;;;;;;;;;;;;;-2.71;59.60;99978.91;1744258;81;20182;-79
2021/03/09 09:51:21;;;;;;;;;;;;;;;-2.74;59.51;99983.30;1740310;81;20344;-74
2021/03/09 09:53:50;;;;;;;;;;;;;;;-2.75;59.14;99975.41;1716107;83;20704;-75
2021/03/09 09:56:21;;;;;;;;;;;;;;;-2.80;58.20;99981.28;1729640;81;20503;-74
2021/03/09 09:58:51;;;;;;;;;;;;;;;-2.95;57.35;99991.01;1723215;81;20336;-76
2021/03/09 10:01:24;;;;;;;;;;;;;;;-3.06;57.92;99987.85;1690123;83;20256;-80
2021/03/09 10:03:56;;;;;;;;;;;;;;;-3.13;57.69;99997.53;1722645;82;20564;-77
2021/03/09 10:06:41;;;;;;;;;;;;;;;-3.02;57.56;99994.03;1745876;82;20221;-74
2021/03/09 10:09:23;;;;;;;;;;;;;;;-2.89;58.48;99987.67;1746393;82;20500;-75
2021/03/09 10:11:58;;;;;;;;;;;;;;;-2.81;58.42;99994.86;1720767;81;20204;-72
2021/03/09 10:14:29;;;;;;;;;;;;;;;-2.92;58.60;100001.39;1731729;81;20176;-76
2021/03/09 10:16:56;;;;;;;;;;;;;;;-3.00;59.24;99995.19;1704419;82;20153;-75
2021/03/09 10:19:38;;;;;;;;;;;;;;;-3.02;59.87;99998.55;1728974;81;20257;-74
2021/03/09 10:22:19;;;;;;;;;;;;;;;-3.02;59.47;100001.22;1716439;84;20195;-78
2021/03/09 10:24:46;;;;;;;;;;;;;;;-2.89;59.42;100003.73;1734156;82;20187;-73
2021/03/09 10:27:16;;;;;;;;;;;;;;;-2.73;59.01;100005.03;1720470;82;20203;-73
2021/03/09 10:29:48;;;;;;;;;;;;;;;-2.63;58.17;100008.37;1718603;82;20550;-78
2021/03/09 10:32:16;;;;;;;;;;;;;;;-2.57;57.47;100013.06;1690789;83;20196;-73
2021/03/09 10:34:52;;;;;;;;;;;;;;;-2.61;57.94;100014.38;1718252;81;20224;-75
2021/03/09 10:37:16;;;;;;;;;;;;;;;-2.83;59.15;100018.27;1728461;81;20204;-76
2021/03/09 10:39:58;;;;;;;;;;;;;;;-3.01;58.88;100009.60;1753954;81;20276;-78
2021/03/09 10:42:39;;;;;;;;;;;;;;;-3.00;59.91;100019.28;1717494;81;20188;-77
2021/03/09 10:45:27;;;;;;;;;;;;;;;-2.95;55.20;100019.13;1718447;81;20193;-74
2021/03/09 10:47:55;;;;;;;;;;;;;;;-2.86;55.48;100023.98;1716962;82;20223;-76
2021/03/09 10:50:24;;;;;;;;;;;;;;;-2.58;53.81;100026.11;1730615;81;20207;-74
2021/03/09 10:52:52;;;;;;;;;;;;;;;-2.52;53.12;100020.58;1724179;81;20660;-73
2021/03/09 10:55:20;;;;;;;;;;;;;;;-2.50;56.50;100025.26;1739771;81;20242;-76
2021/03/09 10:57:48;;;;;;;;;;;;;;;-2.65;61.17;100025.12;1716621;84;20463;-76
2021/03/09 11:00:17;;;;;;;;;;;;;;;-2.84;63.39;100035.36;1718788;83;20191;-74
2021/03/09 11:02:45;;;;;;;;;;;;;;;-3.00;63.27;100034.02;1719376;83;20563;-78
2021/03/09 11:05:14;;;;;;;;;;;;;;;-3.07;63.91;100029.84;1733367;81;20249;-76
2021/03/09 11:07:41;;;;;;;;;;;;;;;-3.01;62.48;100029.68;1723744;81;20175;-76
2021/03/09 11:10:14;;;;;;;;;;;;;;;-2.90;61.03;100015.94;1716974;81;20570;-77
2021/03/09 11:12:39;;;;;;;;;;;;;;;-2.75;60.17;100016.43;1718537;82;20685;-77
2021/03/09 11:15:08;;;;;;;;;;;;;;;-2.58;59.78;100019.94;1745971;82;20178;-76
2021/03/09 11:17:36;;;;;;;;;;;;;;;-2.40;56.71;100006.33;1714575;83;20588;-78
2021/03/09 11:20:26;;;;;;;;;;;;;;;-2.43;55.91;100006.67;1709992;82;20204;-79
2021/03/09 11:22:55;;;;;;;;;;;;;;;-2.30;56.57;100006.44;1701665;84;20185;-77
2021/03/09 11:25:26;;;;;;;;;;;;;;;-2.28;56.47;100009.81;1745824;81;20185;-76
2021/03/09 11:27:54;;;;;;;;;;;;;;;-2.17;56.34;100015.28;1767194;81;20181;-75
2021/03/09 11:30:22;;;;;;;;;;;;;;;-2.22;57.60;100027.88;1748335;81;20224;-76
2021/03/09 11:32:49;;;;;;;;;;;;;;;-2.43;59.88;100038.33;1757981;81;20912;-77
2021/03/09 11:35:18;;;;;;;;;;;;;;;-2.71;61.98;100058.45;1739917;81;20224;-74
2021/03/09 11:37:45;;;;;;;;;;;;;;;-3.06;61.62;100049.42;1756401;81;20181;-77
2021/03/09 11:40:13;;;;;;;;;;;;;;;-3.23;62.99;100058.77;1751185;81;20196;-76
2021/03/09 11:42:41;;;;;;;;;;;;;;;-3.28;64.10;100056.23;1758936;81;20525;-74
2021/03/09 11:45:09;;;;;;;;;;;;;;;-3.26;63.72;100061.77;1758038;81;20530;-78
2021/03/09 11:47:37;;;;;;;;;;;;;;;-3.30;63.84;100063.11;1747530;81;20221;-73
2021/03/09 11:50:06;;;;;;;;;;;;;;;-3.37;61.50;100055.41;1753026;82;20181;-75
2021/03/09 11:52:33;;;;;;;;;;;;;;;-3.43;60.97;100064.08;1748543;81;20266;-74
2021/03/09 11:55:03;;;;;;;;;;;;;;;-3.45;60.88;100063.91;1752751;82;20520;-75
2021/03/09 11:57:35;;;;;;;;;;;;;;;-3.41;60.92;100067.42;1750789;82;20709;-73
2021/03/09 12:00:07;;;;;;;;;;;;;;;-3.37;60.58;100062.09;1752911;82;20181;-77
2021/03/09 12:02:35;;;;;;;;;;;;;;;-3.31;61.20;100067.27;1757003;82;20177;-76
2021/03/09 12:05:04;;;;;;;;;;;;;;;-3.22;60.41;100063.63;1754027;82;20201;-77
2021/03/09 12:07:32;;;;;;;;;;;;;;;-3.16;59.48;100073.65;1755540;82;20241;-77
2021/03/09 12:10:00;;;;;;;;;;;;;;;-3.09;59.33;100073.84;1757205;82;20168;-75
2021/03/09 12:12:27;;;;;;;;;;;;;;;-3.04;57.40;100072.34;1750159;82;21115;-75
2021/03/09 12:14:55;;;;;;;;;;;;;;;-3.04;57.90;100090.24;1708337;84;20570;-75
2021/03/09 12:17:23;;;;;;;;;;;;;;;-3.19;54.09;100091.89;1736264;82;20211;-80
2021/03/09 12:19:51;;;;;;;;;;;;;;;-3.26;55.26;100097.89;1752029;82;20209;-78
2021/03/09 12:22:19;;;;;;;;;;;;;;;-3.32;55.73;100087.86;1752514;81;20205;-77
2021/03/09 12:24:47;;;;;;;;;;;;;;;-3.23;53.77;100099.41;1753161;82;20230;-77
2021/03/09 12:27:14;;;;;;;;;;;;;;;-3.19;51.56;100097.25;1755432;82;20248;-73
2021/03/09 12:29:43;;;;;;;;;;;;;;;-3.13;52.46;100088.05;1756063;80;20189;-79
2021/03/09 12:32:11;;;;;;;;;;;;;;;-3.12;52.47;100098.26;1757064;80;20331;-73
2021/03/09 12:34:39;;;;;;;;;;;;;;;-3.09;52.54;100104.63;1753793;81;20205;-76
2021/03/09 12:37:07;;;;;;;;;;;;;;;-3.10;53.35;100103.78;1755838;82;20562;-73
2021/03/09 12:39:38;;;;;;;;;;;;;;;-3.08;54.19;100107.62;1746160;82;20341;-76
2021/03/09 12:42:06;;;;;;;;;;;;;;;-3.05;53.81;100109.48;1745032;81;20610;-77
2021/03/09 12:44:35;;;;;;;;;;;;;;;-3.04;53.52;100103.62;1754388;82;20286;-74
2021/03/09 12:47:03;;;;;;;;;;;;;;;-3.09;49.78;100112.66;1747311;82;20248;-73
2021/03/09 12:49:31;;;;;;;;;;;;;;;-3.18;49.34;100109.11;1744993;82;20263;-75
2021/03/09 12:51:59;;;;;;;;;;;;;;;-3.22;50.31;100113.98;1729576;82;20272;-77
2021/03/09 12:54:27;;;;;;;;;;;;;;;-3.26;49.90;100113.95;1751154;82;20240;-72
2021/03/09 12:56:54;;;;;;;;;;;;;;;-3.24;49.73;100114.62;1751546;81;20172;-76
2021/03/09 12:59:22;;;;;;;;;;;;;;;-3.26;50.18;100124.66;1706954;82;20189;-79
2021/03/09 13:01:49;;;;;;;;;;;;;;;-3.30;50.07;100127.33;1724915;82;20187;-76
2021/03/09 13:04:18;;;;;;;;;;;;;;;-3.33;50.15;100124.98;1717039;82;20201;-76